sensor_id;sensor_type;location;lat;lon;timestamp;P1;durP1;ratioP1;P2;durP2;ratioP2
18720;SDS011;9489;50.948;3.114;2022-10-04T00:00:21;31.60;;;28.30;;
18720;SDS011;9489;50.948;3.114;2022-10-04T00:02:49;32.03;;;26.48;;
18720;SDS011;9489;50.948;3.114;2022-10-04T00:05:15;31.83;;;27.38;;
18720;SDS011;9489;50.948;3.114;2022-10-04T00:07:45;32.08;;;28.65;;
18720;SDS011;9489;50.948;3.114;2022-10-04T00:15:18;33.53;;;27.42;;
18720;SDS011;9489;50.948;3.114;2022-10-04T00:17:45;34.08;;;29.17;;
18720;SDS011;9489;50.948;3.114;2022-10-04T00:21:13;32.60;;;28.20;;
18720;SDS011;9489;50.948;3.114;2022-10-04T00:25:51;39.22;;;30.30;;
18720;SDS011;9489;50.948;3.114;2022-10-04T00:33:42;33.90;;;29.30;;
18720;SDS011;9489;50.948;3.114;2022-10-04T00:39:03;35.40;;;28.88;;
18720;SDS011;9489;50.948;3.114;2022-10-04T00:44:36;40.03;;;28.30;;
18720;SDS011;9489;50.948;3.114;2022-10-04T00:46:59;35.13;;;27.98;;
18720;SDS011;9489;50.948;3.114;2022-10-04T00:49:31;32.22;;;27.42;;
18720;SDS011;9489;50.948;3.114;2022-10-04T00:52:11;32.50;;;27.98;;
18720;SDS011;9489;50.948;3.114;2022-10-04T00:54:50;36.38;;;28.10;;
18720;SDS011;9489;50.948;3.114;2022-10-04T00:57:24;38.40;;;29.13;;
18720;SDS011;9489;50.948;3.114;2022-10-04T01:03:03;40.00;;;28.13;;
18720;SDS011;9489;50.948;3.114;2022-10-04T01:05:35;37.47;;;29.60;;
18720;SDS011;9489;50.948;3.114;2022-10-04T01:08:50;37.28;;;29.20;;
18720;SDS011;9489;50.948;3.114;2022-10-04T01:11:15;37.28;;;28.85;;
18720;SDS011;9489;50.948;3.114;2022-10-04T01:13:52;35.88;;;28.40;;
18720;SDS011;9489;50.948;3.114;2022-10-04T01:16:31;37.88;;;27.70;;
18720;SDS011;9489;50.948;3.114;2022-10-04T01:21:46;39.20;;;29.13;;
18720;SDS011;9489;50.948;3.114;2022-10-04T01:24:35;38.05;;;27.40;;
18720;SDS011;9489;50.948;3.114;2022-10-04T01:29:59;39.58;;;27.60;;
18720;SDS011;9489;50.948;3.114;2022-10-04T01:32:25;35.85;;;28.90;;
18720;SDS011;9489;50.948;3.114;2022-10-04T01:34:51;34.13;;;28.83;;
18720;SDS011;9489;50.948;3.114;2022-10-04T01:37:16;36.97;;;28.60;;
18720;SDS011;9489;50.948;3.114;2022-10-04T01:39:42;33.25;;;28.35;;
18720;SDS011;9489;50.948;3.114;2022-10-04T01:42:16;36.25;;;28.58;;
18720;SDS011;9489;50.948;3.114;2022-10-04T01:44:55;36.70;;;29.13;;
18720;SDS011;9489;50.948;3.114;2022-10-04T01:47:46;34.58;;;27.17;;
18720;SDS011;9489;50.948;3.114;2022-10-04T01:50:25;39.85;;;28.73;;
18720;SDS011;9489;50.948;3.114;2022-10-04T01:53:20;36.78;;;28.45;;
18720;SDS011;9489;50.948;3.114;2022-10-04T01:55:48;36.88;;;29.05;;
18720;SDS011;9489;50.948;3.114;2022-10-04T01:58:18;37.65;;;29.17;;
18720;SDS011;9489;50.948;3.114;2022-10-04T02:03:36;37.35;;;27.88;;
18720;SDS011;9489;50.948;3.114;2022-10-04T02:06:07;35.75;;;28.40;;
18720;SDS011;9489;50.948;3.114;2022-10-04T02:08:36;35.92;;;26.20;;
18720;SDS011;9489;50.948;3.114;2022-10-04T02:11:04;33.55;;;25.80;;
18720;SDS011;9489;50.948;3.114;2022-10-04T02:13:34;38.00;;;28.75;;
18720;SDS011;9489;50.948;3.114;2022-10-04T02:16:03;34.97;;;28.23;;
18720;SDS011;9489;50.948;3.114;2022-10-04T02:18:35;36.38;;;28.10;;
18720;SDS011;9489;50.948;3.114;2022-10-04T02:21:04;37.83;;;28.20;;
18720;SDS011;9489;50.948;3.114;2022-10-04T02:23:31;35.65;;;27.00;;
18720;SDS011;9489;50.948;3.114;2022-10-04T02:26:03;33.38;;;26.67;;
18720;SDS011;9489;50.948;3.114;2022-10-04T02:28:32;38.13;;;27.98;;
18720;SDS011;9489;50.948;3.114;2022-10-04T02:30:59;37.30;;;27.63;;
18720;SDS011;9489;50.948;3.114;2022-10-04T02:33:45;36.50;;;26.70;;
18720;SDS011;9489;50.948;3.114;2022-10-04T02:36:13;39.03;;;27.77;;
18720;SDS011;9489;50.948;3.114;2022-10-04T02:38:43;36.08;;;27.10;;
18720;SDS011;9489;50.948;3.114;2022-10-04T02:41:11;34.92;;;27.58;;
18720;SDS011;9489;50.948;3.114;2022-10-04T02:49:17;39.03;;;28.23;;
18720;SDS011;9489;50.948;3.114;2022-10-04T02:51:52;32.25;;;26.13;;
18720;SDS011;9489;50.948;3.114;2022-10-04T02:54:29;35.30;;;26.13;;
18720;SDS011;9489;50.948;3.114;2022-10-04T02:57:18;34.60;;;27.92;;
18720;SDS011;9489;50.948;3.114;2022-10-04T02:59:45;35.75;;;27.60;;
18720;SDS011;9489;50.948;3.114;2022-10-04T03:02:24;35.20;;;26.98;;
18720;SDS011;9489;50.948;3.114;2022-10-04T03:04:52;35.20;;;27.33;;
18720;SDS011;9489;50.948;3.114;2022-10-04T03:07:20;33.45;;;26.30;;
18720;SDS011;9489;50.948;3.114;2022-10-04T03:09:47;40.22;;;28.92;;
18720;SDS011;9489;50.948;3.114;2022-10-04T03:12:14;33.63;;;27.17;;
18720;SDS011;9489;50.948;3.114;2022-10-04T03:14:40;37.83;;;27.75;;
18720;SDS011;9489;50.948;3.114;2022-10-04T03:17:06;39.15;;;28.42;;
18720;SDS011;9489;50.948;3.114;2022-10-04T03:19:33;35.42;;;28.38;;
18720;SDS011;9489;50.948;3.114;2022-10-04T03:22:00;37.38;;;27.55;;
18720;SDS011;9489;50.948;3.114;2022-10-04T03:24:31;36.67;;;28.60;;
18720;SDS011;9489;50.948;3.114;2022-10-04T03:27:02;35.65;;;27.42;;
18720;SDS011;9489;50.948;3.114;2022-10-04T03:29:32;39.15;;;28.48;;
18720;SDS011;9489;50.948;3.114;2022-10-04T03:31:59;36.55;;;27.73;;
18720;SDS011;9489;50.948;3.114;2022-10-04T03:34:31;35.60;;;28.80;;
18720;SDS011;9489;50.948;3.114;2022-10-04T03:36:59;33.15;;;27.13;;
18720;SDS011;9489;50.948;3.114;2022-10-04T03:42:02;39.75;;;27.42;;
18720;SDS011;9489;50.948;3.114;2022-10-04T03:44:31;36.55;;;26.00;;
18720;SDS011;9489;50.948;3.114;2022-10-04T03:46:58;37.97;;;28.13;;
18720;SDS011;9489;50.948;3.114;2022-10-04T03:49:29;36.67;;;27.52;;
18720;SDS011;9489;50.948;3.114;2022-10-04T03:51:59;34.90;;;27.10;;
18720;SDS011;9489;50.948;3.114;2022-10-04T03:54:26;36.95;;;26.58;;
18720;SDS011;9489;50.948;3.114;2022-10-04T03:56:53;37.72;;;26.85;;
18720;SDS011;9489;50.948;3.114;2022-10-04T03:59:19;39.25;;;26.25;;
18720;SDS011;9489;50.948;3.114;2022-10-04T04:12:02;36.67;;;26.17;;
18720;SDS011;9489;50.948;3.114;2022-10-04T04:14:35;33.50;;;28.30;;
18720;SDS011;9489;50.948;3.114;2022-10-04T04:20:27;40.33;;;28.40;;
18720;SDS011;9489;50.948;3.114;2022-10-04T04:23:35;39.95;;;27.63;;
18720;SDS011;9489;50.948;3.114;2022-10-04T04:25:54;36.20;;;26.88;;
18720;SDS011;9489;50.948;3.114;2022-10-04T04:30:51;44.20;;;29.50;;
18720;SDS011;9489;50.948;3.114;2022-10-04T04:33:31;35.90;;;27.75;;
18720;SDS011;9489;50.948;3.114;2022-10-04T04:36:11;41.58;;;28.13;;
18720;SDS011;9489;50.948;3.114;2022-10-04T04:38:39;38.35;;;28.05;;
18720;SDS011;9489;50.948;3.114;2022-10-04T04:41:25;36.92;;;27.88;;
18720;SDS011;9489;50.948;3.114;2022-10-04T04:43:53;39.22;;;26.90;;
18720;SDS011;9489;50.948;3.114;2022-10-04T04:46:19;40.13;;;28.30;;
18720;SDS011;9489;50.948;3.114;2022-10-04T04:48:46;37.28;;;28.48;;
18720;SDS011;9489;50.948;3.114;2022-10-04T04:51:18;34.80;;;25.48;;
18720;SDS011;9489;50.948;3.114;2022-10-04T04:53:45;39.50;;;26.73;;
18720;SDS011;9489;50.948;3.114;2022-10-04T04:56:12;36.35;;;28.42;;
18720;SDS011;9489;50.948;3.114;2022-10-04T04:58:44;40.72;;;29.35;;
18720;SDS011;9489;50.948;3.114;2022-10-04T05:06:40;36.97;;;27.58;;
18720;SDS011;9489;50.948;3.114;2022-10-04T05:11:55;38.15;;;29.02;;
18720;SDS011;9489;50.948;3.114;2022-10-04T05:14:45;36.83;;;27.55;;
18720;SDS011;9489;50.948;3.114;2022-10-04T05:17:20;34.63;;;27.63;;
18720;SDS011;9489;50.948;3.114;2022-10-04T05:19:50;36.78;;;29.00;;
18720;SDS011;9489;50.948;3.114;2022-10-04T05:22:20;39.00;;;29.73;;
18720;SDS011;9489;50.948;3.114;2022-10-04T05:24:49;38.92;;;28.92;;
18720;SDS011;9489;50.948;3.114;2022-10-04T05:27:23;41.40;;;29.33;;
18720;SDS011;9489;50.948;3.114;2022-10-04T05:43:34;40.45;;;29.25;;
18720;SDS011;9489;50.948;3.114;2022-10-04T05:46:12;42.42;;;30.10;;
18720;SDS011;9489;50.948;3.114;2022-10-04T05:48:38;39.10;;;27.55;;
18720;SDS011;9489;50.948;3.114;2022-10-04T05:54:13;46.58;;;30.35;;
18720;SDS011;9489;50.948;3.114;2022-10-04T06:02:02;47.10;;;30.52;;
18720;SDS011;9489;50.948;3.114;2022-10-04T06:07:12;43.75;;;30.58;;
18720;SDS011;9489;50.948;3.114;2022-10-04T06:12:31;43.15;;;31.27;;
18720;SDS011;9489;50.948;3.114;2022-10-04T06:15:22;41.88;;;31.52;;
18720;SDS011;9489;50.948;3.114;2022-10-04T06:23:23;47.75;;;33.97;;
18720;SDS011;9489;50.948;3.114;2022-10-04T06:25:53;52.17;;;35.40;;
18720;SDS011;9489;50.948;3.114;2022-10-04T06:36:16;50.40;;;35.70;;
18720;SDS011;9489;50.948;3.114;2022-10-04T06:47:29;47.85;;;33.47;;
18720;SDS011;9489;50.948;3.114;2022-10-04T06:53:16;47.55;;;34.67;;
18720;SDS011;9489;50.948;3.114;2022-10-04T07:01:32;41.13;;;32.30;;
18720;SDS011;9489;50.948;3.114;2022-10-04T07:06:41;40.03;;;30.60;;
18720;SDS011;9489;50.948;3.114;2022-10-04T07:09:18;43.13;;;32.30;;
18720;SDS011;9489;50.948;3.114;2022-10-04T07:11:49;39.72;;;31.67;;
18720;SDS011;9489;50.948;3.114;2022-10-04T07:14:24;39.10;;;31.63;;
18720;SDS011;9489;50.948;3.114;2022-10-04T07:16:57;33.53;;;29.50;;
18720;SDS011;9489;50.948;3.114;2022-10-04T07:19:37;36.40;;;29.35;;
18720;SDS011;9489;50.948;3.114;2022-10-04T07:24:55;35.10;;;28.13;;
18720;SDS011;9489;50.948;3.114;2022-10-04T07:27:36;32.65;;;28.25;;
18720;SDS011;9489;50.948;3.114;2022-10-04T07:30:14;32.15;;;26.40;;
18720;SDS011;9489;50.948;3.114;2022-10-04T07:32:43;28.10;;;24.10;;
18720;SDS011;9489;50.948;3.114;2022-10-04T07:35:28;29.30;;;26.15;;
18720;SDS011;9489;50.948;3.114;2022-10-04T07:40:39;30.73;;;25.60;;
18720;SDS011;9489;50.948;3.114;2022-10-04T07:43:22;28.38;;;25.38;;
18720;SDS011;9489;50.948;3.114;2022-10-04T07:45:53;32.28;;;25.52;;
18720;SDS011;9489;50.948;3.114;2022-10-04T07:48:29;28.23;;;25.23;;
18720;SDS011;9489;50.948;3.114;2022-10-04T07:55:55;29.02;;;24.17;;
18720;SDS011;9489;50.948;3.114;2022-10-04T08:01:25;27.20;;;22.85;;
18720;SDS011;9489;50.948;3.114;2022-10-04T08:06:50;24.08;;;21.23;;
18720;SDS011;9489;50.948;3.114;2022-10-04T08:14:43;21.38;;;19.27;;
18720;SDS011;9489;50.948;3.114;2022-10-04T08:32:06;20.95;;;18.83;;
18720;SDS011;9489;50.948;3.114;2022-10-04T08:54:20;23.90;;;21.38;;
18720;SDS011;9489;50.948;3.114;2022-10-04T09:10:49;19.30;;;17.58;;
18720;SDS011;9489;50.948;3.114;2022-10-04T09:13:35;18.20;;;16.50;;
18720;SDS011;9489;50.948;3.114;2022-10-04T09:29:32;17.08;;;15.68;;
18720;SDS011;9489;50.948;3.114;2022-10-04T09:32:23;16.17;;;14.57;;
18720;SDS011;9489;50.948;3.114;2022-10-04T09:38:07;16.55;;;15.05;;
18720;SDS011;9489;50.948;3.114;2022-10-04T10:01:15;14.43;;;13.15;;
18720;SDS011;9489;50.948;3.114;2022-10-04T10:03:45;15.70;;;14.40;;
18720;SDS011;9489;50.948;3.114;2022-10-04T10:09:25;15.77;;;14.30;;
18720;SDS011;9489;50.948;3.114;2022-10-04T10:20:53;16.95;;;15.38;;
18720;SDS011;9489;50.948;3.114;2022-10-04T10:29:15;13.90;;;12.70;;
18720;SDS011;9489;50.948;3.114;2022-10-04T10:32:08;13.48;;;12.45;;
18720;SDS011;9489;50.948;3.114;2022-10-04T10:35:09;13.55;;;12.50;;
18720;SDS011;9489;50.948;3.114;2022-10-04T10:43:49;15.68;;;14.32;;
18720;SDS011;9489;50.948;3.114;2022-10-04T10:57:28;14.68;;;13.48;;
18720;SDS011;9489;50.948;3.114;2022-10-04T11:00:19;15.95;;;14.65;;
18720;SDS011;9489;50.948;3.114;2022-10-04T11:16:04;13.98;;;12.80;;
18720;SDS011;9489;50.948;3.114;2022-10-04T11:35:42;12.25;;;11.32;;
18720;SDS011;9489;50.948;3.114;2022-10-04T11:52:46;11.32;;;10.35;;
18720;SDS011;9489;50.948;3.114;2022-10-04T11:55:45;10.30;;;9.60;;
18720;SDS011;9489;50.948;3.114;2022-10-04T12:01:26;10.35;;;9.40;;
18720;SDS011;9489;50.948;3.114;2022-10-04T12:23:24;10.65;;;9.65;;
18720;SDS011;9489;50.948;3.114;2022-10-04T12:31:31;10.00;;;9.10;;
18720;SDS011;9489;50.948;3.114;2022-10-04T12:42:59;10.82;;;9.93;;
18720;SDS011;9489;50.948;3.114;2022-10-04T12:48:08;9.23;;;8.52;;
18720;SDS011;9489;50.948;3.114;2022-10-04T13:04:58;7.57;;;6.90;;
18720;SDS011;9489;50.948;3.114;2022-10-04T13:27:24;7.53;;;6.90;;
18720;SDS011;9489;50.948;3.114;2022-10-04T13:32:55;8.95;;;7.60;;
18720;SDS011;9489;50.948;3.114;2022-10-04T13:41:00;7.95;;;6.07;;
18720;SDS011;9489;50.948;3.114;2022-10-04T14:09:43;5.82;;;5.32;;
18720;SDS011;9489;50.948;3.114;2022-10-04T14:42:45;7.40;;;6.78;;
18720;SDS011;9489;50.948;3.114;2022-10-04T14:46:00;8.02;;;7.00;;
18720;SDS011;9489;50.948;3.114;2022-10-04T14:51:38;8.20;;;7.55;;
18720;SDS011;9489;50.948;3.114;2022-10-04T15:13:29;6.70;;;6.07;;
18720;SDS011;9489;50.948;3.114;2022-10-04T15:16:13;7.28;;;6.60;;
18720;SDS011;9489;50.948;3.114;2022-10-04T15:18:56;7.68;;;6.82;;
18720;SDS011;9489;50.948;3.114;2022-10-04T15:24:26;7.63;;;6.95;;
18720;SDS011;9489;50.948;3.114;2022-10-04T15:38:14;8.20;;;7.50;;
18720;SDS011;9489;50.948;3.114;2022-10-04T15:41:05;8.48;;;7.68;;
18720;SDS011;9489;50.948;3.114;2022-10-04T15:43:41;8.27;;;7.55;;
18720;SDS011;9489;50.948;3.114;2022-10-04T15:55:09;10.27;;;9.38;;
18720;SDS011;9489;50.948;3.114;2022-10-04T16:03:38;9.30;;;8.07;;
18720;SDS011;9489;50.948;3.114;2022-10-04T16:06:29;9.82;;;8.82;;
18720;SDS011;9489;50.948;3.114;2022-10-04T16:14:53;9.55;;;8.65;;
18720;SDS011;9489;50.948;3.114;2022-10-04T16:17:31;10.10;;;9.20;;
18720;SDS011;9489;50.948;3.114;2022-10-04T16:20:18;10.25;;;8.80;;
18720;SDS011;9489;50.948;3.114;2022-10-04T16:25:52;9.68;;;8.77;;
18720;SDS011;9489;50.948;3.114;2022-10-04T16:33:31;7.53;;;6.82;;
18720;SDS011;9489;50.948;3.114;2022-10-04T16:36:07;6.30;;;5.70;;
18720;SDS011;9489;50.948;3.114;2022-10-04T16:39:00;7.15;;;6.50;;
18720;SDS011;9489;50.948;3.114;2022-10-04T16:41:52;6.97;;;5.82;;
18720;SDS011;9489;50.948;3.114;2022-10-04T16:44:31;5.95;;;5.35;;
18720;SDS011;9489;50.948;3.114;2022-10-04T16:47:11;7.15;;;6.45;;
18720;SDS011;9489;50.948;3.114;2022-10-04T16:49:52;7.90;;;7.20;;
18720;SDS011;9489;50.948;3.114;2022-10-04T16:52:36;7.07;;;6.30;;
18720;SDS011;9489;50.948;3.114;2022-10-04T16:55:51;6.22;;;5.63;;
18720;SDS011;9489;50.948;3.114;2022-10-04T17:03:46;3.92;;;2.88;;
18720;SDS011;9489;50.948;3.114;2022-10-04T17:12:19;3.60;;;3.28;;
18720;SDS011;9489;50.948;3.114;2022-10-04T17:17:50;3.42;;;2.30;;
18720;SDS011;9489;50.948;3.114;2022-10-04T17:25:58;3.33;;;3.03;;
18720;SDS011;9489;50.948;3.114;2022-10-04T17:42:35;5.32;;;4.93;;
18720;SDS011;9489;50.948;3.114;2022-10-04T17:53:46;5.50;;;3.47;;
18720;SDS011;9489;50.948;3.114;2022-10-04T17:57:06;5.20;;;4.40;;
18720;SDS011;9489;50.948;3.114;2022-10-04T17:59:38;4.68;;;4.22;;
18720;SDS011;9489;50.948;3.114;2022-10-04T18:08:16;3.83;;;3.53;;
18720;SDS011;9489;50.948;3.114;2022-10-04T18:11:05;7.28;;;6.57;;
18720;SDS011;9489;50.948;3.114;2022-10-04T18:16:27;12.52;;;11.10;;
18720;SDS011;9489;50.948;3.114;2022-10-04T18:22:03;7.00;;;6.50;;
18720;SDS011;9489;50.948;3.114;2022-10-04T18:24:38;6.60;;;6.10;;
18720;SDS011;9489;50.948;3.114;2022-10-04T18:27:15;8.38;;;7.63;;
18720;SDS011;9489;50.948;3.114;2022-10-04T18:32:37;6.05;;;5.53;;
18720;SDS011;9489;50.948;3.114;2022-10-04T18:35:18;11.52;;;10.27;;
18720;SDS011;9489;50.948;3.114;2022-10-04T18:40:33;10.52;;;9.52;;
18720;SDS011;9489;50.948;3.114;2022-10-04T18:43:39;8.48;;;7.57;;
18720;SDS011;9489;50.948;3.114;2022-10-04T18:51:34;8.30;;;7.53;;
18720;SDS011;9489;50.948;3.114;2022-10-04T18:54:13;6.85;;;5.90;;
18720;SDS011;9489;50.948;3.114;2022-10-04T18:59:52;8.88;;;8.18;;
18720;SDS011;9489;50.948;3.114;2022-10-04T19:02:48;13.68;;;12.60;;
18720;SDS011;9489;50.948;3.114;2022-10-04T19:08:08;9.40;;;8.52;;
18720;SDS011;9489;50.948;3.114;2022-10-04T19:11:14;6.43;;;5.82;;
18720;SDS011;9489;50.948;3.114;2022-10-04T19:13:44;5.70;;;5.20;;
18720;SDS011;9489;50.948;3.114;2022-10-04T19:16:31;5.40;;;4.90;;
18720;SDS011;9489;50.948;3.114;2022-10-04T19:30:34;8.38;;;7.50;;
18720;SDS011;9489;50.948;3.114;2022-10-04T19:41:28;6.07;;;5.53;;
18720;SDS011;9489;50.948;3.114;2022-10-04T19:47:00;6.25;;;4.45;;
18720;SDS011;9489;50.948;3.114;2022-10-04T19:49:37;8.15;;;6.93;;
18720;SDS011;9489;50.948;3.114;2022-10-04T19:54:56;5.88;;;5.20;;
18720;SDS011;9489;50.948;3.114;2022-10-04T19:57:41;6.47;;;5.35;;
18720;SDS011;9489;50.948;3.114;2022-10-04T20:00:11;5.28;;;4.80;;
18720;SDS011;9489;50.948;3.114;2022-10-04T20:02:39;7.05;;;4.93;;
18720;SDS011;9489;50.948;3.114;2022-10-04T20:05:11;4.05;;;3.72;;
18720;SDS011;9489;50.948;3.114;2022-10-04T20:07:38;4.60;;;4.20;;
18720;SDS011;9489;50.948;3.114;2022-10-04T20:10:27;6.38;;;5.13;;
18720;SDS011;9489;50.948;3.114;2022-10-04T20:17:59;4.32;;;3.92;;
18720;SDS011;9489;50.948;3.114;2022-10-04T20:23:06;5.38;;;3.88;;
18720;SDS011;9489;50.948;3.114;2022-10-04T20:28:07;3.47;;;3.17;;
18720;SDS011;9489;50.948;3.114;2022-10-04T20:36:06;5.43;;;4.07;;
18720;SDS011;9489;50.948;3.114;2022-10-04T20:50:10;6.63;;;4.75;;
18720;SDS011;9489;50.948;3.114;2022-10-04T20:52:37;4.68;;;4.05;;
18720;SDS011;9489;50.948;3.114;2022-10-04T20:55:15;4.80;;;4.30;;
18720;SDS011;9489;50.948;3.114;2022-10-04T20:57:49;6.97;;;4.07;;
18720;SDS011;9489;50.948;3.114;2022-10-04T21:00:16;6.30;;;3.72;;
18720;SDS011;9489;50.948;3.114;2022-10-04T21:02:47;5.25;;;3.03;;
18720;SDS011;9489;50.948;3.114;2022-10-04T21:05:13;3.53;;;3.17;;
18720;SDS011;9489;50.948;3.114;2022-10-04T21:07:47;4.30;;;3.45;;
18720;SDS011;9489;50.948;3.114;2022-10-04T21:10:17;3.92;;;3.08;;
18720;SDS011;9489;50.948;3.114;2022-10-04T21:12:44;4.07;;;3.20;;
18720;SDS011;9489;50.948;3.114;2022-10-04T21:17:41;4.72;;;3.55;;
18720;SDS011;9489;50.948;3.114;2022-10-04T21:20:39;4.25;;;3.78;;
18720;SDS011;9489;50.948;3.114;2022-10-04T21:23:27;3.58;;;3.28;;
18720;SDS011;9489;50.948;3.114;2022-10-04T21:26:17;3.83;;;3.53;;
18720;SDS011;9489;50.948;3.114;2022-10-04T21:28:55;5.90;;;4.18;;
18720;SDS011;9489;50.948;3.114;2022-10-04T21:31:21;8.95;;;3.50;;
18720;SDS011;9489;50.948;3.114;2022-10-04T21:33:47;5.78;;;3.50;;
18720;SDS011;9489;50.948;3.114;2022-10-04T21:36:13;6.80;;;4.20;;
18720;SDS011;9489;50.948;3.114;2022-10-04T21:38:38;4.40;;;3.45;;
18720;SDS011;9489;50.948;3.114;2022-10-04T21:41:04;6.63;;;4.07;;
18720;SDS011;9489;50.948;3.114;2022-10-04T21:43:30;4.00;;;3.28;;
18720;SDS011;9489;50.948;3.114;2022-10-04T21:45:56;3.33;;;3.03;;
18720;SDS011;9489;50.948;3.114;2022-10-04T21:48:22;4.32;;;3.70;;
18720;SDS011;9489;50.948;3.114;2022-10-04T21:50:49;6.68;;;3.60;;
18720;SDS011;9489;50.948;3.114;2022-10-04T21:53:15;7.00;;;4.18;;
18720;SDS011;9489;50.948;3.114;2022-10-04T21:55:41;6.20;;;4.32;;
18720;SDS011;9489;50.948;3.114;2022-10-04T21:58:07;4.63;;;4.20;;
18720;SDS011;9489;50.948;3.114;2022-10-04T22:00:32;4.22;;;3.67;;
18720;SDS011;9489;50.948;3.114;2022-10-04T22:02:58;5.35;;;3.70;;
18720;SDS011;9489;50.948;3.114;2022-10-04T22:05:24;4.25;;;3.88;;
18720;SDS011;9489;50.948;3.114;2022-10-04T22:07:50;4.30;;;3.90;;
18720;SDS011;9489;50.948;3.114;2022-10-04T22:10:15;4.55;;;4.10;;
18720;SDS011;9489;50.948;3.114;2022-10-04T22:12:41;5.80;;;4.28;;
18720;SDS011;9489;50.948;3.114;2022-10-04T22:15:07;4.32;;;3.92;;
18720;SDS011;9489;50.948;3.114;2022-10-04T22:17:33;6.45;;;4.28;;
18720;SDS011;9489;50.948;3.114;2022-10-04T22:19:59;4.72;;;4.32;;
18720;SDS011;9489;50.948;3.114;2022-10-04T22:22:24;4.35;;;3.95;;
18720;SDS011;9489;50.948;3.114;2022-10-04T22:24:52;4.55;;;4.15;;
18720;SDS011;9489;50.948;3.114;2022-10-04T22:27:18;8.02;;;4.65;;
18720;SDS011;9489;50.948;3.114;2022-10-04T22:29:44;6.40;;;4.28;;
18720;SDS011;9489;50.948;3.114;2022-10-04T22:32:12;4.95;;;4.30;;
18720;SDS011;9489;50.948;3.114;2022-10-04T22:34:41;5.30;;;4.28;;
18720;SDS011;9489;50.948;3.114;2022-10-04T22:37:09;5.78;;;4.30;;
18720;SDS011;9489;50.948;3.114;2022-10-04T22:39:35;5.82;;;4.22;;
18720;SDS011;9489;50.948;3.114;2022-10-04T22:42:02;5.30;;;4.78;;
18720;SDS011;9489;50.948;3.114;2022-10-04T22:44:29;6.47;;;4.50;;
18720;SDS011;9489;50.948;3.114;2022-10-04T22:46:59;4.97;;;4.45;;
18720;SDS011;9489;50.948;3.114;2022-10-04T22:49:27;5.30;;;4.80;;
18720;SDS011;9489;50.948;3.114;2022-10-04T22:51:59;7.20;;;5.28;;
18720;SDS011;9489;50.948;3.114;2022-10-04T22:54:31;6.68;;;5.03;;
18720;SDS011;9489;50.948;3.114;2022-10-04T22:56:58;5.50;;;4.75;;
18720;SDS011;9489;50.948;3.114;2022-10-04T22:59:35;6.95;;;4.72;;
18720;SDS011;9489;50.948;3.114;2022-10-04T23:02:11;7.60;;;5.35;;
18720;SDS011;9489;50.948;3.114;2022-10-04T23:04:46;6.28;;;5.00;;
18720;SDS011;9489;50.948;3.114;2022-10-04T23:07:17;5.90;;;5.13;;
18720;SDS011;9489;50.948;3.114;2022-10-04T23:09:43;6.78;;;4.63;;
18720;SDS011;9489;50.948;3.114;2022-10-04T23:12:09;6.38;;;5.50;;
18720;SDS011;9489;50.948;3.114;2022-10-04T23:14:38;6.15;;;5.00;;
18720;SDS011;9489;50.948;3.114;2022-10-04T23:17:27;6.93;;;5.53;;
18720;SDS011;9489;50.948;3.114;2022-10-04T23:19:57;5.70;;;5.18;;
18720;SDS011;9489;50.948;3.114;2022-10-04T23:22:44;6.03;;;5.43;;
18720;SDS011;9489;50.948;3.114;2022-10-04T23:25:15;5.97;;;5.47;;
18720;SDS011;9489;50.948;3.114;2022-10-04T23:27:44;6.22;;;5.13;;
18720;SDS011;9489;50.948;3.114;2022-10-04T23:30:12;7.50;;;5.10;;
18720;SDS011;9489;50.948;3.114;2022-10-04T23:32:46;6.40;;;5.50;;
18720;SDS011;9489;50.948;3.114;2022-10-04T23:35:16;7.03;;;5.13;;
18720;SDS011;9489;50.948;3.114;2022-10-04T23:37:42;6.05;;;5.35;;
18720;SDS011;9489;50.948;3.114;2022-10-04T23:40:08;5.70;;;5.20;;
18720;SDS011;9489;50.948;3.114;2022-10-04T23:42:35;5.95;;;5.38;;
18720;SDS011;9489;50.948;3.114;2022-10-04T23:45:01;6.03;;;5.22;;
18720;SDS011;9489;50.948;3.114;2022-10-04T23:47:35;7.00;;;5.68;;
18720;SDS011;9489;50.948;3.114;2022-10-04T23:50:01;6.45;;;5.10;;
18720;SDS011;9489;50.948;3.114;2022-10-04T23:52:46;5.80;;;5.30;;
18720;SDS011;9489;50.948;3.114;2022-10-04T23:55:21;5.72;;;5.22;;
18720;SDS011;9489;50.948;3.114;2022-10-04T23:57:49;7.03;;;5.03;;
